XRRL weather

CLOSED Yegorlykskaya Air Base
Yegorlykskaya, Rostov Oblast, Russia

Public forecast

Using degrees Celsius for public forecast. Weather courtesy of forecast.io.

METAR (pilot weather report)

Report is more than 6 hours old.

Closest report is Rostov-on-Don Airport, 51.9 nm (96.1 km) NW. Retrieved 2017/12/31 23:30 UTC (2 years ago):

URRR 312330Z 18003MPS 0100 R04/0450N -DZ FG VV001 06/06 Q1012 R22/290056 TEMPO 0300 -SHRA FG BKN001 BKN020CB RMK QBB040 MAST OBSC QFE752/1003

TAF (pilot weather forecast)

Forecast is more than 12 hours old.

Closest forecast is Rostov-on-Don Airport, 51.9 nm (96.1 km) NW. Retrieved 2017/12/28 21:00 UTC (2 years ago):

TAF URRR 281957Z 2821/2921 10006G11MPS 3100 BR BKN011 TEMPO 2821/2909 09003G08MPS 0400 FG BKN002 TEMPO 2912/2921 09008G13MPS